sensor_id;sensor_type;location;lat;lon;timestamp;P1;durP1;ratioP1;P2;durP2;ratioP2
9372;SDS011;10838;52.350;9.790;2023-06-05T00:00:13;4.13;;;1.90;;
9372;SDS011;10838;52.350;9.790;2023-06-05T00:02:40;2.80;;;1.83;;
9372;SDS011;10838;52.350;9.790;2023-06-05T00:05:07;2.10;;;2.00;;
9372;SDS011;10838;52.350;9.790;2023-06-05T00:07:34;1.93;;;1.80;;
9372;SDS011;10838;52.350;9.790;2023-06-05T00:10:04;4.07;;;2.20;;
9372;SDS011;10838;52.350;9.790;2023-06-05T00:12:31;1.93;;;1.83;;
9372;SDS011;10838;52.350;9.790;2023-06-05T00:14:58;2.53;;;2.00;;
9372;SDS011;10838;52.350;9.790;2023-06-05T00:17:24;2.50;;;2.30;;
9372;SDS011;10838;52.350;9.790;2023-06-05T00:19:51;2.90;;;1.90;;
9372;SDS011;10838;52.350;9.790;2023-06-05T00:22:18;2.13;;;1.93;;
9372;SDS011;10838;52.350;9.790;2023-06-05T00:24:45;2.23;;;2.03;;
9372;SDS011;10838;52.350;9.790;2023-06-05T00:27:13;3.70;;;2.03;;
9372;SDS011;10838;52.350;9.790;2023-06-05T00:29:40;5.33;;;2.07;;
9372;SDS011;10838;52.350;9.790;2023-06-05T00:32:06;3.43;;;2.20;;
9372;SDS011;10838;52.350;9.790;2023-06-05T00:34:33;4.90;;;1.97;;
9372;SDS011;10838;52.350;9.790;2023-06-05T00:36:59;1.97;;;1.87;;
9372;SDS011;10838;52.350;9.790;2023-06-05T00:39:26;2.40;;;2.20;;
9372;SDS011;10838;52.350;9.790;2023-06-05T00:41:52;5.80;;;2.40;;
9372;SDS011;10838;52.350;9.790;2023-06-05T00:44:21;2.90;;;2.10;;
9372;SDS011;10838;52.350;9.790;2023-06-05T00:46:47;4.57;;;2.50;;
9372;SDS011;10838;52.350;9.790;2023-06-05T00:49:16;2.57;;;2.00;;
9372;SDS011;10838;52.350;9.790;2023-06-05T00:51:44;4.70;;;1.77;;
9372;SDS011;10838;52.350;9.790;2023-06-05T00:54:12;4.17;;;2.20;;
9372;SDS011;10838;52.350;9.790;2023-06-05T00:56:39;2.87;;;2.13;;
9372;SDS011;10838;52.350;9.790;2023-06-05T00:59:07;5.13;;;2.07;;
9372;SDS011;10838;52.350;9.790;2023-06-05T01:01:35;2.70;;;2.20;;
9372;SDS011;10838;52.350;9.790;2023-06-05T01:04:03;2.40;;;2.20;;
9372;SDS011;10838;52.350;9.790;2023-06-05T01:06:29;3.07;;;1.90;;
9372;SDS011;10838;52.350;9.790;2023-06-05T01:08:59;4.70;;;2.43;;
9372;SDS011;10838;52.350;9.790;2023-06-05T01:11:28;2.53;;;2.30;;
9372;SDS011;10838;52.350;9.790;2023-06-05T01:14:02;3.43;;;2.30;;
9372;SDS011;10838;52.350;9.790;2023-06-05T01:16:38;2.67;;;2.30;;
9372;SDS011;10838;52.350;9.790;2023-06-05T01:19:07;2.93;;;2.10;;
9372;SDS011;10838;52.350;9.790;2023-06-05T01:21:39;5.83;;;2.30;;
9372;SDS011;10838;52.350;9.790;2023-06-05T01:24:08;2.80;;;2.03;;
9372;SDS011;10838;52.350;9.790;2023-06-05T01:26:36;2.53;;;2.33;;
9372;SDS011;10838;52.350;9.790;2023-06-05T01:29:17;2.50;;;2.20;;
9372;SDS011;10838;52.350;9.790;2023-06-05T01:31:50;2.97;;;2.07;;
9372;SDS011;10838;52.350;9.790;2023-06-05T01:34:22;2.37;;;2.17;;
9372;SDS011;10838;52.350;9.790;2023-06-05T01:36:51;2.40;;;2.20;;
9372;SDS011;10838;52.350;9.790;2023-06-05T01:39:22;3.80;;;2.23;;
9372;SDS011;10838;52.350;9.790;2023-06-05T01:41:50;3.87;;;2.23;;
9372;SDS011;10838;52.350;9.790;2023-06-05T01:44:19;2.30;;;2.10;;
9372;SDS011;10838;52.350;9.790;2023-06-05T01:46:46;2.60;;;2.40;;
9372;SDS011;10838;52.350;9.790;2023-06-05T01:49:13;2.27;;;2.03;;
9372;SDS011;10838;52.350;9.790;2023-06-05T01:51:39;2.77;;;2.10;;
9372;SDS011;10838;52.350;9.790;2023-06-05T01:54:06;2.30;;;2.10;;
9372;SDS011;10838;52.350;9.790;2023-06-05T01:56:34;5.77;;;2.37;;
9372;SDS011;10838;52.350;9.790;2023-06-05T01:59:02;4.17;;;2.27;;
9372;SDS011;10838;52.350;9.790;2023-06-05T02:01:31;2.33;;;2.13;;
9372;SDS011;10838;52.350;9.790;2023-06-05T02:03:59;4.17;;;2.57;;
9372;SDS011;10838;52.350;9.790;2023-06-05T02:06:31;3.20;;;2.13;;
9372;SDS011;10838;52.350;9.790;2023-06-05T02:09:00;3.50;;;2.27;;
9372;SDS011;10838;52.350;9.790;2023-06-05T02:11:27;2.57;;;2.37;;
9372;SDS011;10838;52.350;9.790;2023-06-05T02:13:55;2.57;;;2.27;;
9372;SDS011;10838;52.350;9.790;2023-06-05T02:16:22;2.87;;;2.60;;
9372;SDS011;10838;52.350;9.790;2023-06-05T02:18:50;2.27;;;2.10;;
9372;SDS011;10838;52.350;9.790;2023-06-05T02:21:17;3.47;;;2.33;;
9372;SDS011;10838;52.350;9.790;2023-06-05T02:23:43;2.20;;;2.00;;
9372;SDS011;10838;52.350;9.790;2023-06-05T02:26:10;2.20;;;2.10;;
9372;SDS011;10838;52.350;9.790;2023-06-05T02:28:37;2.50;;;2.03;;
9372;SDS011;10838;52.350;9.790;2023-06-05T02:31:04;2.40;;;2.20;;
9372;SDS011;10838;52.350;9.790;2023-06-05T02:33:31;2.30;;;2.10;;
9372;SDS011;10838;52.350;9.790;2023-06-05T02:35:58;2.43;;;2.23;;
9372;SDS011;10838;52.350;9.790;2023-06-05T02:38:24;3.23;;;2.33;;
9372;SDS011;10838;52.350;9.790;2023-06-05T02:40:52;6.33;;;2.40;;
9372;SDS011;10838;52.350;9.790;2023-06-05T02:43:18;2.37;;;1.90;;
9372;SDS011;10838;52.350;9.790;2023-06-05T02:45:46;3.53;;;2.43;;
9372;SDS011;10838;52.350;9.790;2023-06-05T02:48:14;2.57;;;2.33;;
9372;SDS011;10838;52.350;9.790;2023-06-05T02:50:41;2.40;;;2.20;;
9372;SDS011;10838;52.350;9.790;2023-06-05T02:53:07;2.10;;;1.90;;
9372;SDS011;10838;52.350;9.790;2023-06-05T02:55:35;2.40;;;2.20;;
9372;SDS011;10838;52.350;9.790;2023-06-05T02:58:02;2.17;;;2.07;;
9372;SDS011;10838;52.350;9.790;2023-06-05T03:00:29;2.67;;;2.47;;
9372;SDS011;10838;52.350;9.790;2023-06-05T03:02:56;2.37;;;2.17;;
9372;SDS011;10838;52.350;9.790;2023-06-05T03:05:24;2.30;;;2.10;;
9372;SDS011;10838;52.350;9.790;2023-06-05T03:07:52;2.63;;;2.40;;
9372;SDS011;10838;52.350;9.790;2023-06-05T03:10:19;2.50;;;2.40;;
9372;SDS011;10838;52.350;9.790;2023-06-05T03:12:46;5.57;;;2.40;;
9372;SDS011;10838;52.350;9.790;2023-06-05T03:15:12;2.20;;;2.10;;
9372;SDS011;10838;52.350;9.790;2023-06-05T03:17:41;3.20;;;2.43;;
9372;SDS011;10838;52.350;9.790;2023-06-05T03:20:08;3.07;;;2.50;;
9372;SDS011;10838;52.350;9.790;2023-06-05T03:22:36;3.90;;;2.40;;
9372;SDS011;10838;52.350;9.790;2023-06-05T03:25:04;3.27;;;2.23;;
9372;SDS011;10838;52.350;9.790;2023-06-05T03:27:31;3.73;;;2.50;;
9372;SDS011;10838;52.350;9.790;2023-06-05T03:29:57;2.60;;;2.40;;
9372;SDS011;10838;52.350;9.790;2023-06-05T03:32:24;2.90;;;2.40;;
9372;SDS011;10838;52.350;9.790;2023-06-05T03:34:50;3.17;;;2.13;;
9372;SDS011;10838;52.350;9.790;2023-06-05T03:37:17;3.57;;;2.63;;
9372;SDS011;10838;52.350;9.790;2023-06-05T03:39:45;3.00;;;2.37;;
9372;SDS011;10838;52.350;9.790;2023-06-05T03:42:12;3.90;;;2.20;;
9372;SDS011;10838;52.350;9.790;2023-06-05T03:44:38;2.47;;;2.30;;
9372;SDS011;10838;52.350;9.790;2023-06-05T03:47:05;2.83;;;2.20;;
9372;SDS011;10838;52.350;9.790;2023-06-05T03:49:32;3.67;;;2.33;;
9372;SDS011;10838;52.350;9.790;2023-06-05T03:52:00;7.57;;;2.50;;
9372;SDS011;10838;52.350;9.790;2023-06-05T03:54:27;4.47;;;2.60;;
9372;SDS011;10838;52.350;9.790;2023-06-05T03:56:58;4.73;;;3.03;;
9372;SDS011;10838;52.350;9.790;2023-06-05T03:59:27;3.40;;;2.70;;
9372;SDS011;10838;52.350;9.790;2023-06-05T04:01:53;5.73;;;2.77;;
9372;SDS011;10838;52.350;9.790;2023-06-05T04:04:21;6.10;;;2.50;;
9372;SDS011;10838;52.350;9.790;2023-06-05T04:06:48;4.97;;;3.10;;
9372;SDS011;10838;52.350;9.790;2023-06-05T04:09:14;3.47;;;2.70;;
9372;SDS011;10838;52.350;9.790;2023-06-05T04:11:43;4.33;;;2.70;;
9372;SDS011;10838;52.350;9.790;2023-06-05T04:14:11;4.77;;;2.60;;
9372;SDS011;10838;52.350;9.790;2023-06-05T04:16:38;3.20;;;2.90;;
9372;SDS011;10838;52.350;9.790;2023-06-05T04:19:08;2.73;;;2.53;;
9372;SDS011;10838;52.350;9.790;2023-06-05T04:21:35;5.27;;;2.93;;
9372;SDS011;10838;52.350;9.790;2023-06-05T04:24:02;2.73;;;2.57;;
9372;SDS011;10838;52.350;9.790;2023-06-05T04:26:31;3.13;;;2.50;;
9372;SDS011;10838;52.350;9.790;2023-06-05T04:28:58;6.93;;;2.67;;
9372;SDS011;10838;52.350;9.790;2023-06-05T04:31:28;3.20;;;2.90;;
9372;SDS011;10838;52.350;9.790;2023-06-05T04:33:55;4.33;;;2.73;;
9372;SDS011;10838;52.350;9.790;2023-06-05T04:36:22;6.40;;;3.13;;
9372;SDS011;10838;52.350;9.790;2023-06-05T04:38:48;7.40;;;2.80;;
9372;SDS011;10838;52.350;9.790;2023-06-05T04:41:15;9.73;;;3.57;;
9372;SDS011;10838;52.350;9.790;2023-06-05T04:43:41;4.03;;;3.43;;
9372;SDS011;10838;52.350;9.790;2023-06-05T04:46:08;5.67;;;3.70;;
9372;SDS011;10838;52.350;9.790;2023-06-05T04:48:36;3.60;;;3.33;;
9372;SDS011;10838;52.350;9.790;2023-06-05T04:51:02;5.33;;;3.70;;
9372;SDS011;10838;52.350;9.790;2023-06-05T04:53:29;3.87;;;3.50;;
9372;SDS011;10838;52.350;9.790;2023-06-05T04:55:57;4.37;;;3.63;;
9372;SDS011;10838;52.350;9.790;2023-06-05T04:58:26;4.97;;;3.50;;
9372;SDS011;10838;52.350;9.790;2023-06-05T05:00:53;4.63;;;3.90;;
9372;SDS011;10838;52.350;9.790;2023-06-05T05:03:21;5.43;;;4.23;;
9372;SDS011;10838;52.350;9.790;2023-06-05T05:05:49;8.77;;;4.80;;
9372;SDS011;10838;52.350;9.790;2023-06-05T05:08:16;9.90;;;4.80;;
9372;SDS011;10838;52.350;9.790;2023-06-05T05:10:42;13.70;;;4.63;;
9372;SDS011;10838;52.350;9.790;2023-06-05T05:13:09;9.47;;;4.47;;
9372;SDS011;10838;52.350;9.790;2023-06-05T05:15:35;6.07;;;4.63;;
9372;SDS011;10838;52.350;9.790;2023-06-05T05:18:02;6.83;;;5.00;;
9372;SDS011;10838;52.350;9.790;2023-06-05T05:20:29;8.90;;;4.63;;
9372;SDS011;10838;52.350;9.790;2023-06-05T05:22:58;8.27;;;5.20;;
9372;SDS011;10838;52.350;9.790;2023-06-05T05:25:25;7.90;;;4.90;;
9372;SDS011;10838;52.350;9.790;2023-06-05T05:27:52;10.27;;;4.77;;
9372;SDS011;10838;52.350;9.790;2023-06-05T05:30:19;7.93;;;5.20;;
9372;SDS011;10838;52.350;9.790;2023-06-05T05:32:46;6.73;;;5.30;;
9372;SDS011;10838;52.350;9.790;2023-06-05T05:35:12;10.73;;;5.50;;
9372;SDS011;10838;52.350;9.790;2023-06-05T05:37:39;10.07;;;5.43;;
9372;SDS011;10838;52.350;9.790;2023-06-05T05:40:08;15.50;;;5.93;;
9372;SDS011;10838;52.350;9.790;2023-06-05T05:42:35;8.67;;;5.40;;
9372;SDS011;10838;52.350;9.790;2023-06-05T05:45:02;8.43;;;5.30;;
9372;SDS011;10838;52.350;9.790;2023-06-05T05:47:29;14.80;;;5.23;;
9372;SDS011;10838;52.350;9.790;2023-06-05T05:49:56;9.23;;;5.00;;
9372;SDS011;10838;52.350;9.790;2023-06-05T05:52:22;10.60;;;5.23;;
9372;SDS011;10838;52.350;9.790;2023-06-05T05:54:49;10.07;;;4.93;;
9372;SDS011;10838;52.350;9.790;2023-06-05T05:57:18;9.63;;;5.20;;
9372;SDS011;10838;52.350;9.790;2023-06-05T05:59:44;5.17;;;4.60;;
9372;SDS011;10838;52.350;9.790;2023-06-05T06:02:11;7.63;;;4.20;;
9372;SDS011;10838;52.350;9.790;2023-06-05T06:04:38;6.67;;;4.37;;
9372;SDS011;10838;52.350;9.790;2023-06-05T06:07:05;6.43;;;4.57;;
9372;SDS011;10838;52.350;9.790;2023-06-05T06:09:31;6.23;;;4.60;;
9372;SDS011;10838;52.350;9.790;2023-06-05T06:11:58;9.77;;;5.07;;
9372;SDS011;10838;52.350;9.790;2023-06-05T06:14:29;8.73;;;4.27;;
9372;SDS011;10838;52.350;9.790;2023-06-05T06:16:55;9.40;;;5.00;;
9372;SDS011;10838;52.350;9.790;2023-06-05T06:19:23;6.53;;;4.60;;
9372;SDS011;10838;52.350;9.790;2023-06-05T06:21:50;9.13;;;4.63;;
9372;SDS011;10838;52.350;9.790;2023-06-05T06:24:17;5.60;;;4.40;;
9372;SDS011;10838;52.350;9.790;2023-06-05T06:26:45;8.63;;;4.37;;
9372;SDS011;10838;52.350;9.790;2023-06-05T06:29:13;5.47;;;4.03;;
9372;SDS011;10838;52.350;9.790;2023-06-05T06:31:41;7.27;;;4.00;;
9372;SDS011;10838;52.350;9.790;2023-06-05T06:34:08;8.60;;;4.60;;
9372;SDS011;10838;52.350;9.790;2023-06-05T06:36:36;7.20;;;4.40;;
9372;SDS011;10838;52.350;9.790;2023-06-05T06:39:05;5.50;;;3.97;;
9372;SDS011;10838;52.350;9.790;2023-06-05T06:41:32;5.43;;;4.20;;
9372;SDS011;10838;52.350;9.790;2023-06-05T06:43:59;7.87;;;3.97;;
9372;SDS011;10838;52.350;9.790;2023-06-05T06:46:25;6.00;;;4.13;;
9372;SDS011;10838;52.350;9.790;2023-06-05T06:48:53;10.57;;;4.23;;
9372;SDS011;10838;52.350;9.790;2023-06-05T06:51:20;5.83;;;3.87;;
9372;SDS011;10838;52.350;9.790;2023-06-05T06:53:48;6.80;;;3.90;;
9372;SDS011;10838;52.350;9.790;2023-06-05T06:56:15;4.80;;;3.40;;
9372;SDS011;10838;52.350;9.790;2023-06-05T06:58:43;4.90;;;4.07;;
9372;SDS011;10838;52.350;9.790;2023-06-05T07:01:10;7.90;;;3.90;;
9372;SDS011;10838;52.350;9.790;2023-06-05T07:03:38;4.03;;;3.63;;
9372;SDS011;10838;52.350;9.790;2023-06-05T07:06:08;6.40;;;3.80;;
9372;SDS011;10838;52.350;9.790;2023-06-05T07:08:36;7.57;;;3.83;;
9372;SDS011;10838;52.350;9.790;2023-06-05T07:11:02;8.07;;;4.07;;
9372;SDS011;10838;52.350;9.790;2023-06-05T07:13:29;10.77;;;4.03;;
9372;SDS011;10838;52.350;9.790;2023-06-05T07:15:56;6.33;;;3.67;;
9372;SDS011;10838;52.350;9.790;2023-06-05T07:18:22;6.80;;;3.80;;
9372;SDS011;10838;52.350;9.790;2023-06-05T07:20:49;7.23;;;4.10;;
9372;SDS011;10838;52.350;9.790;2023-06-05T07:23:17;9.27;;;3.83;;
9372;SDS011;10838;52.350;9.790;2023-06-05T07:25:44;8.60;;;3.57;;
9372;SDS011;10838;52.350;9.790;2023-06-05T07:28:10;8.90;;;3.57;;
9372;SDS011;10838;52.350;9.790;2023-06-05T07:30:38;7.57;;;3.60;;
9372;SDS011;10838;52.350;9.790;2023-06-05T07:33:08;5.67;;;3.50;;
9372;SDS011;10838;52.350;9.790;2023-06-05T07:35:35;5.00;;;3.40;;
9372;SDS011;10838;52.350;9.790;2023-06-05T07:38:02;6.80;;;3.50;;
9372;SDS011;10838;52.350;9.790;2023-06-05T07:40:30;9.03;;;3.33;;
9372;SDS011;10838;52.350;9.790;2023-06-05T07:42:56;6.17;;;3.53;;
9372;SDS011;10838;52.350;9.790;2023-06-05T07:45:23;5.20;;;4.40;;
9372;SDS011;10838;52.350;9.790;2023-06-05T07:47:50;5.83;;;3.50;;
9372;SDS011;10838;52.350;9.790;2023-06-05T07:50:16;4.13;;;3.00;;
9372;SDS011;10838;52.350;9.790;2023-06-05T07:52:43;11.87;;;3.57;;
9372;SDS011;10838;52.350;9.790;2023-06-05T07:55:09;7.40;;;3.33;;
9372;SDS011;10838;52.350;9.790;2023-06-05T07:57:37;8.47;;;3.37;;
9372;SDS011;10838;52.350;9.790;2023-06-05T08:00:04;6.07;;;3.17;;
9372;SDS011;10838;52.350;9.790;2023-06-05T08:02:35;7.20;;;3.60;;
9372;SDS011;10838;52.350;9.790;2023-06-05T08:05:02;10.50;;;3.60;;
9372;SDS011;10838;52.350;9.790;2023-06-05T08:07:29;8.10;;;3.87;;
9372;SDS011;10838;52.350;9.790;2023-06-05T08:09:56;9.13;;;3.40;;
9372;SDS011;10838;52.350;9.790;2023-06-05T08:12:22;6.70;;;3.50;;
9372;SDS011;10838;52.350;9.790;2023-06-05T08:14:50;6.67;;;2.97;;
9372;SDS011;10838;52.350;9.790;2023-06-05T08:17:17;8.73;;;3.30;;
9372;SDS011;10838;52.350;9.790;2023-06-05T08:19:43;17.53;;;4.07;;
9372;SDS011;10838;52.350;9.790;2023-06-05T08:22:10;10.07;;;3.40;;
9372;SDS011;10838;52.350;9.790;2023-06-05T08:24:37;9.83;;;3.37;;
9372;SDS011;10838;52.350;9.790;2023-06-05T08:27:04;7.30;;;3.40;;
9372;SDS011;10838;52.350;9.790;2023-06-05T08:29:32;5.83;;;3.00;;
9372;SDS011;10838;52.350;9.790;2023-06-05T08:32:02;6.10;;;3.20;;
9372;SDS011;10838;52.350;9.790;2023-06-05T08:34:29;6.50;;;2.90;;
9372;SDS011;10838;52.350;9.790;2023-06-05T08:36:56;5.47;;;2.90;;
9372;SDS011;10838;52.350;9.790;2023-06-05T08:39:24;6.05;;;2.80;;
9372;SDS011;10838;52.350;9.790;2023-06-05T08:41:54;8.07;;;2.77;;
9372;SDS011;10838;52.350;9.790;2023-06-05T08:44:24;6.63;;;2.90;;
9372;SDS011;10838;52.350;9.790;2023-06-05T08:46:52;5.40;;;2.60;;
9372;SDS011;10838;52.350;9.790;2023-06-05T08:49:26;5.78;;;2.75;;
9372;SDS011;10838;52.350;9.790;2023-06-05T08:51:55;2.80;;;2.60;;
9372;SDS011;10838;52.350;9.790;2023-06-05T08:54:25;4.85;;;2.80;;
9372;SDS011;10838;52.350;9.790;2023-06-05T08:56:52;2.53;;;2.30;;
9372;SDS011;10838;52.350;9.790;2023-06-05T08:59:19;7.13;;;2.70;;
9372;SDS011;10838;52.350;9.790;2023-06-05T09:01:49;5.78;;;2.40;;
9372;SDS011;10838;52.350;9.790;2023-06-05T09:04:15;5.60;;;2.85;;
9372;SDS011;10838;52.350;9.790;2023-06-05T09:06:46;6.75;;;2.80;;
9372;SDS011;10838;52.350;9.790;2023-06-05T09:09:13;11.77;;;4.55;;
9372;SDS011;10838;52.350;9.790;2023-06-05T09:11:41;8.23;;;3.00;;
9372;SDS011;10838;52.350;9.790;2023-06-05T09:14:07;7.82;;;2.80;;
9372;SDS011;10838;52.350;9.790;2023-06-05T09:16:35;5.72;;;2.88;;
9372;SDS011;10838;52.350;9.790;2023-06-05T09:19:03;12.18;;;3.20;;
9372;SDS011;10838;52.350;9.790;2023-06-05T09:21:30;8.88;;;3.15;;
9372;SDS011;10838;52.350;9.790;2023-06-05T09:24:12;8.02;;;2.70;;
9372;SDS011;10838;52.350;9.790;2023-06-05T09:26:45;5.35;;;2.63;;
9372;SDS011;10838;52.350;9.790;2023-06-05T09:29:16;5.82;;;2.58;;
9372;SDS011;10838;52.350;9.790;2023-06-05T09:31:46;5.10;;;2.42;;
9372;SDS011;10838;52.350;9.790;2023-06-05T09:34:19;3.17;;;2.40;;
9372;SDS011;10838;52.350;9.790;2023-06-05T09:36:47;2.75;;;2.17;;
9372;SDS011;10838;52.350;9.790;2023-06-05T09:39:15;11.23;;;2.50;;
9372;SDS011;10838;52.350;9.790;2023-06-05T09:41:43;5.35;;;2.45;;
9372;SDS011;10838;52.350;9.790;2023-06-05T09:44:10;3.03;;;2.25;;
9372;SDS011;10838;52.350;9.790;2023-06-05T09:46:43;7.88;;;2.75;;
9372;SDS011;10838;52.350;9.790;2023-06-05T09:49:17;12.35;;;2.35;;
9372;SDS011;10838;52.350;9.790;2023-06-05T09:51:44;3.97;;;2.45;;
9372;SDS011;10838;52.350;9.790;2023-06-05T09:54:11;5.72;;;2.28;;
9372;SDS011;10838;52.350;9.790;2023-06-05T09:56:40;6.10;;;2.38;;
9372;SDS011;10838;52.350;9.790;2023-06-05T09:59:07;11.25;;;2.70;;
9372;SDS011;10838;52.350;9.790;2023-06-05T10:01:35;7.07;;;2.40;;
9372;SDS011;10838;52.350;9.790;2023-06-05T10:04:05;5.05;;;2.30;;
9372;SDS011;10838;52.350;9.790;2023-06-05T10:06:33;5.72;;;2.35;;
9372;SDS011;10838;52.350;9.790;2023-06-05T10:09:00;2.22;;;2.03;;
9372;SDS011;10838;52.350;9.790;2023-06-05T10:11:27;2.05;;;1.95;;
9372;SDS011;10838;52.350;9.790;2023-06-05T10:13:55;2.92;;;1.80;;
9372;SDS011;10838;52.350;9.790;2023-06-05T10:16:25;4.10;;;1.85;;
9372;SDS011;10838;52.350;9.790;2023-06-05T10:18:52;5.40;;;2.08;;
9372;SDS011;10838;52.350;9.790;2023-06-05T10:21:21;6.90;;;2.08;;
9372;SDS011;10838;52.350;9.790;2023-06-05T10:23:50;4.72;;;2.10;;
9372;SDS011;10838;52.350;9.790;2023-06-05T10:26:22;2.20;;;2.10;;
9372;SDS011;10838;52.350;9.790;2023-06-05T10:29:06;1.83;;;1.73;;
9372;SDS011;10838;52.350;9.790;2023-06-05T10:31:43;5.07;;;2.03;;
9372;SDS011;10838;52.350;9.790;2023-06-05T10:34:14;3.78;;;2.13;;
9372;SDS011;10838;52.350;9.790;2023-06-05T10:37:02;2.50;;;1.90;;
9372;SDS011;10838;52.350;9.790;2023-06-05T10:39:47;4.45;;;1.77;;
9372;SDS011;10838;52.350;9.790;2023-06-05T10:42:21;9.73;;;2.30;;
9372;SDS011;10838;52.350;9.790;2023-06-05T10:44:50;5.68;;;2.10;;
9372;SDS011;10838;52.350;9.790;2023-06-05T10:47:48;3.40;;;2.13;;
9372;SDS011;10838;52.350;9.790;2023-06-05T10:50:19;3.60;;;2.50;;
9372;SDS011;10838;52.350;9.790;2023-06-05T10:52:50;6.35;;;2.20;;
9372;SDS011;10838;52.350;9.790;2023-06-05T10:55:17;2.95;;;2.05;;
9372;SDS011;10838;52.350;9.790;2023-06-05T11:03:56;1.98;;;1.88;;
9372;SDS011;10838;52.350;9.790;2023-06-05T11:06:24;2.30;;;2.10;;
9372;SDS011;10838;52.350;9.790;2023-06-05T11:09:06;2.88;;;1.95;;
9372;SDS011;10838;52.350;9.790;2023-06-05T11:11:56;3.15;;;2.00;;
9372;SDS011;10838;52.350;9.790;2023-06-05T11:14:24;1.90;;;1.80;;
9372;SDS011;10838;52.350;9.790;2023-06-05T11:16:52;4.15;;;2.17;;
9372;SDS011;10838;52.350;9.790;2023-06-05T11:19:34;3.08;;;2.20;;
9372;SDS011;10838;52.350;9.790;2023-06-05T11:22:02;2.50;;;2.30;;
9372;SDS011;10838;52.350;9.790;2023-06-05T11:24:29;7.13;;;2.20;;
9372;SDS011;10838;52.350;9.790;2023-06-05T11:26:57;6.10;;;2.35;;
9372;SDS011;10838;52.350;9.790;2023-06-05T11:29:24;4.22;;;2.08;;
9372;SDS011;10838;52.350;9.790;2023-06-05T11:31:53;3.80;;;2.20;;
9372;SDS011;10838;52.350;9.790;2023-06-05T11:34:20;2.00;;;1.90;;
9372;SDS011;10838;52.350;9.790;2023-06-05T11:36:47;2.22;;;2.00;;
9372;SDS011;10838;52.350;9.790;2023-06-05T11:39:14;6.10;;;2.10;;
9372;SDS011;10838;52.350;9.790;2023-06-05T11:41:44;2.50;;;1.92;;
9372;SDS011;10838;52.350;9.790;2023-06-05T11:44:12;4.38;;;1.90;;
9372;SDS011;10838;52.350;9.790;2023-06-05T11:46:40;3.17;;;1.92;;
9372;SDS011;10838;52.350;9.790;2023-06-05T11:49:09;3.38;;;2.13;;
9372;SDS011;10838;52.350;9.790;2023-06-05T11:51:49;3.22;;;2.30;;
9372;SDS011;10838;52.350;9.790;2023-06-05T11:54:23;2.00;;;1.90;;
9372;SDS011;10838;52.350;9.790;2023-06-05T11:56:50;2.35;;;2.22;;
9372;SDS011;10838;52.350;9.790;2023-06-05T11:59:21;2.15;;;1.98;;
9372;SDS011;10838;52.350;9.790;2023-06-05T12:01:49;7.78;;;2.50;;
9372;SDS011;10838;52.350;9.790;2023-06-05T12:04:20;2.30;;;2.20;;
9372;SDS011;10838;52.350;9.790;2023-06-05T12:06:47;2.90;;;1.98;;
9372;SDS011;10838;52.350;9.790;2023-06-05T12:09:16;2.30;;;2.13;;
9372;SDS011;10838;52.350;9.790;2023-06-05T12:11:43;3.20;;;2.28;;
9372;SDS011;10838;52.350;9.790;2023-06-05T12:14:11;2.72;;;2.53;;
9372;SDS011;10838;52.350;9.790;2023-06-05T12:16:39;3.28;;;2.20;;
9372;SDS011;10838;52.350;9.790;2023-06-05T12:19:11;3.63;;;2.08;;
9372;SDS011;10838;52.350;9.790;2023-06-05T12:21:40;2.03;;;1.90;;
9372;SDS011;10838;52.350;9.790;2023-06-05T12:24:07;3.42;;;2.22;;
9372;SDS011;10838;52.350;9.790;2023-06-05T12:26:49;4.80;;;2.20;;
9372;SDS011;10838;52.350;9.790;2023-06-05T12:29:18;4.78;;;2.72;;
9372;SDS011;10838;52.350;9.790;2023-06-05T12:31:46;2.45;;;1.98;;
9372;SDS011;10838;52.350;9.790;2023-06-05T12:34:13;2.83;;;2.10;;
9372;SDS011;10838;52.350;9.790;2023-06-05T12:36:42;4.30;;;2.30;;
9372;SDS011;10838;52.350;9.790;2023-06-05T12:39:09;2.33;;;2.17;;
9372;SDS011;10838;52.350;9.790;2023-06-05T12:41:37;2.28;;;2.10;;
9372;SDS011;10838;52.350;9.790;2023-06-05T12:44:04;2.05;;;1.90;;
9372;SDS011;10838;52.350;9.790;2023-06-05T12:46:32;2.30;;;2.15;;
9372;SDS011;10838;52.350;9.790;2023-06-05T12:48:58;3.65;;;2.15;;
9372;SDS011;10838;52.350;9.790;2023-06-05T12:51:25;3.25;;;2.03;;
9372;SDS011;10838;52.350;9.790;2023-06-05T12:53:53;5.75;;;2.22;;
9372;SDS011;10838;52.350;9.790;2023-06-05T12:56:20;5.53;;;3.25;;
9372;SDS011;10838;52.350;9.790;2023-06-05T12:58:50;2.53;;;2.17;;
9372;SDS011;10838;52.350;9.790;2023-06-05T13:01:17;2.03;;;1.92;;
9372;SDS011;10838;52.350;9.790;2023-06-05T13:03:44;3.78;;;2.30;;
9372;SDS011;10838;52.350;9.790;2023-06-05T13:06:10;4.05;;;2.20;;
9372;SDS011;10838;52.350;9.790;2023-06-05T13:08:37;3.97;;;2.10;;
9372;SDS011;10838;52.350;9.790;2023-06-05T13:11:05;6.38;;;2.20;;
9372;SDS011;10838;52.350;9.790;2023-06-05T13:13:32;4.40;;;2.28;;
9372;SDS011;10838;52.350;9.790;2023-06-05T13:15:58;3.28;;;2.30;;
9372;SDS011;10838;52.350;9.790;2023-06-05T13:18:26;2.17;;;2.08;;
9372;SDS011;10838;52.350;9.790;2023-06-05T13:20:53;2.20;;;2.10;;
9372;SDS011;10838;52.350;9.790;2023-06-05T13:23:20;2.50;;;2.30;;
9372;SDS011;10838;52.350;9.790;2023-06-05T13:25:46;2.38;;;2.17;;
9372;SDS011;10838;52.350;9.790;2023-06-05T13:28:14;2.85;;;2.25;;
9372;SDS011;10838;52.350;9.790;2023-06-05T13:30:41;2.50;;;2.30;;
9372;SDS011;10838;52.350;9.790;2023-06-05T13:33:08;6.15;;;2.20;;
9372;SDS011;10838;52.350;9.790;2023-06-05T13:35:36;2.28;;;2.00;;
9372;SDS011;10838;52.350;9.790;2023-06-05T13:38:02;3.95;;;2.00;;
9372;SDS011;10838;52.350;9.790;2023-06-05T13:40:29;3.00;;;2.15;;
9372;SDS011;10838;52.350;9.790;2023-06-05T13:42:57;2.25;;;2.00;;
9372;SDS011;10838;52.350;9.790;2023-06-05T13:45:25;2.88;;;2.50;;
9372;SDS011;10838;52.350;9.790;2023-06-05T13:47:52;2.15;;;2.05;;
9372;SDS011;10838;52.350;9.790;2023-06-05T13:50:18;2.40;;;2.20;;
9372;SDS011;10838;52.350;9.790;2023-06-05T13:52:45;11.65;;;2.22;;
9372;SDS011;10838;52.350;9.790;2023-06-05T13:55:12;2.33;;;2.13;;
9372;SDS011;10838;52.350;9.790;2023-06-05T13:57:39;2.13;;;2.03;;
9372;SDS011;10838;52.350;9.790;2023-06-05T14:00:06;3.42;;;2.20;;
9372;SDS011;10838;52.350;9.790;2023-06-05T14:02:35;3.90;;;1.98;;
9372;SDS011;10838;52.350;9.790;2023-06-05T14:05:02;3.38;;;2.20;;
9372;SDS011;10838;52.350;9.790;2023-06-05T14:07:29;2.00;;;1.90;;
9372;SDS011;10838;52.350;9.790;2023-06-05T14:09:55;3.85;;;2.28;;
9372;SDS011;10838;52.350;9.790;2023-06-05T14:12:23;2.33;;;2.22;;
9372;SDS011;10838;52.350;9.790;2023-06-05T14:14:50;2.30;;;2.20;;
9372;SDS011;10838;52.350;9.790;2023-06-05T14:17:16;2.20;;;2.00;;
9372;SDS011;10838;52.350;9.790;2023-06-05T14:19:44;2.65;;;2.33;;
9372;SDS011;10838;52.350;9.790;2023-06-05T14:22:11;2.20;;;2.05;;
9372;SDS011;10838;52.350;9.790;2023-06-05T14:24:38;6.55;;;2.30;;
9372;SDS011;10838;52.350;9.790;2023-06-05T14:27:05;2.28;;;2.08;;
9372;SDS011;10838;52.350;9.790;2023-06-05T14:29:32;3.88;;;3.05;;
9372;SDS011;10838;52.350;9.790;2023-06-05T14:32:00;4.03;;;2.40;;
9372;SDS011;10838;52.350;9.790;2023-06-05T14:34:27;3.20;;;2.40;;
9372;SDS011;10838;52.350;9.790;2023-06-05T14:36:55;1.98;;;1.88;;
9372;SDS011;10838;52.350;9.790;2023-06-05T14:39:21;5.40;;;2.05;;
9372;SDS011;10838;52.350;9.790;2023-06-05T14:41:48;2.20;;;2.10;;
9372;SDS011;10838;52.350;9.790;2023-06-05T14:44:14;3.13;;;2.38;;
9372;SDS011;10838;52.350;9.790;2023-06-05T14:46:41;2.33;;;2.13;;
9372;SDS011;10838;52.350;9.790;2023-06-05T14:49:08;2.75;;;2.10;;
9372;SDS011;10838;52.350;9.790;2023-06-05T14:51:34;5.18;;;2.28;;
9372;SDS011;10838;52.350;9.790;2023-06-05T14:54:02;3.67;;;1.92;;
9372;SDS011;10838;52.350;9.790;2023-06-05T14:56:29;2.42;;;2.20;;
9372;SDS011;10838;52.350;9.790;2023-06-05T14:58:55;2.25;;;2.15;;
9372;SDS011;10838;52.350;9.790;2023-06-05T15:01:22;2.42;;;2.30;;
9372;SDS011;10838;52.350;9.790;2023-06-05T15:03:49;2.65;;;2.35;;
9372;SDS011;10838;52.350;9.790;2023-06-05T15:06:15;3.40;;;2.30;;
9372;SDS011;10838;52.350;9.790;2023-06-05T15:08:42;4.93;;;2.20;;
9372;SDS011;10838;52.350;9.790;2023-06-05T15:11:10;3.63;;;2.20;;